This is the latest recevied weather packets stored in our database for station/object IU3OVK-13. If no packets are shown the sender has not sent any weather packets the latest 10 day(s).
| Time | Temp. | Humidity | Pressure | Rain* | Wind** | Luminosity | Snow |
|---|---|---|---|---|---|---|---|
| 1777906206 | 23.33° C | 86% | 1008.9 hPa | - | - | - | - |
| 1777905585 | 24.44° C | 82% | 1007.5 hPa | - | - | - | - |
| 1777904965 | 23.89° C | 83% | 1008.2 hPa | - | - | - | - |
| 1777904345 | 23.89° C | 85% | 1009.2 hPa | - | - | - | - |
| 1777903726 | 23.89° C | 81% | 1008 hPa | - | - | - | - |
| 1777903104 | 24.44° C | 82% | 1008.1 hPa | - | - | - | - |
| 1777901244 | 24.44° C | 81% | 1008.2 hPa | - | - | - | - |
| 1777900003 | 24.44° C | 83% | 1009.3 hPa | - | - | - | - |
| 1777899383 | 23.89° C | 81% | 1009.6 hPa | - | - | - | - |
| 1777898763 | 24.44° C | 82% | 1009.5 hPa | - | - | - | - |
| 1777898143 | 25° C | 79% | 1008.6 hPa | - | - | - | - |
| 1777897523 | 27.22° C | 80% | 1007.4 hPa | - | - | - | - |
| 1777896903 | 27.22° C | 79% | 1006 hPa | - | - | - | - |
| 1777895662 | 27.22° C | 85% | 1008.4 hPa | - | - | - | - |
| 1777895042 | 26.11° C | 86% | 1010 hPa | - | - | - | - |
| 1777894422 | 26.11° C | 83% | 1010.1 hPa | - | - | - | - |
| 1777893802 | 28.33° C | 80% | 1008.7 hPa | - | - | - | - |
| 1777893182 | 27.22° C | 81% | 1009.3 hPa | - | - | - | - |
| 1777892562 | 26.67° C | 83% | 1010.3 hPa | - | - | - | - |
| 1777891941 | 27.22° C | 80% | 1009.8 hPa | - | - | - | - |
| 1777891321 | 27.22° C | 79% | 1010.3 hPa | - | - | - | - |
| 1777890701 | 28.33° C | 78% | 1010.2 hPa | - | - | - | - |
| 1777890081 | 27.78° C | 78% | 1010.6 hPa | - | - | - | - |
| 1777889461 | 27.22° C | 76% | 1011.7 hPa | - | - | - | - |
| 1777888841 | 28.89° C | 72% | 1011.3 hPa | - | - | - | - |
* Rain since midnight (hover to see other rain measurements)
** Current wind speed in m/s (hover to see current wind gust speed)